| time (UTC) | temp C | wind direction | speed KPH | gust KPH | rain 1hr cm | rain 24hr cm | rain mn cm | humidity % | barometer mb |
| 20260506165305 | 13 | 124 | 6.4 | 8.0 | 0.00 | 0.00 | 0.00 | 67 | 1032.4 |
| 20260506164801 | 13 | 128 | 4.8 | 6.4 | 0.00 | 0.00 | 0.00 | 66 | 1032.3 |
| 20260506164258 | 13 | 114 | 6.4 | 12.9 | 0.00 | 0.00 | 0.00 | 65 | 1032.3 |
| 20260506163755 | 13 | 105 | 14.5 | 14.5 | 0.00 | 0.00 | 0.00 | 65 | 1032.5 |
| 20260506163249 | 13 | 114 | 8.0 | 14.5 | 0.00 | 0.00 | 0.00 | 65 | 1032.4 |
| 20260506162746 | 13 | 113 | 6.4 | 11.3 | 0.00 | 0.00 | 0.00 | 66 | 1032.5 |
| 20260506162244 | 13 | 95 | 9.7 | 11.3 | 0.00 | 0.00 | 0.00 | 65 | 1032.4 |
| 20260506161741 | 13 | 112 | 8.0 | 12.9 | 0.00 | 0.00 | 0.00 | 65 | 1032.5 |
| 20260506161238 | 13 | 102 | 9.7 | 12.9 | 0.00 | 0.00 | 0.00 | 65 | 1032.5 |
| 20260506160736 | 13 | 104 | 8.0 | 14.5 | 0.00 | 0.00 | 0.00 | 64 | 1032.7 |
| 20260506160232 | 13 | 96 | 12.9 | 14.5 | 0.00 | 0.00 | 0.00 | 64 | 1032.6 |
| 20260506155731 | 13 | 102 | 9.7 | 12.9 | 0.00 | 0.00 | 0.00 | 65 | 1032.5 |
| 20260506155228 | 13 | 107 | 8.0 | 8.0 | 0.00 | 0.00 | 0.00 | 67 | 1032.6 |
| 20260506153340 | 13 | 151 | 3.2 | 6.4 | 0.00 | 0.00 | 0.00 | 66 | 1032.4 |
| 20260506152837 | 13 | 142 | 8.0 | 8.0 | 0.00 | 0.00 | 0.00 | 66 | 1032.6 |
| 20260506152334 | 14 | 143 | 4.8 | 8.0 | 0.00 | 0.00 | 0.00 | 64 | 1032.4 |
| 20260506151833 | 14 | 131 | 6.4 | 8.0 | 0.00 | 0.00 | 0.00 | 64 | 1032.6 |
| 20260506151329 | 14 | 121 | 6.4 | 8.0 | 0.00 | 0.00 | 0.00 | 63 | 1032.7 |
| 20260506150826 | 15 | 123 | 9.7 | 11.3 | 0.00 | 0.00 | 0.00 | 61 | 1032.5 |
| 20260506150323 | 15 | 105 | 8.0 | 12.9 | 0.00 | 0.00 | 0.00 | 61 | 1032.5 |
| 20260506145820 | 15 | 107 | 4.8 | 9.7 | 0.00 | 0.00 | 0.00 | 63 | 1032.5 |
| 20260506145316 | 15 | 110 | 4.8 | 8.0 | 0.00 | 0.00 | 0.00 | 62 | 1032.5 |
| 20260506144814 | 15 | 102 | 8.0 | 12.9 | 0.00 | 0.00 | 0.00 | 63 | 1032.7 |
| 20260506144310 | 15 | 107 | 8.0 | 11.3 | 0.00 | 0.00 | 0.00 | 64 | 1032.5 |
| 20260506143809 | 15 | 102 | 6.4 | 8.0 | 0.00 | 0.00 | 0.00 | 64 | 1032.5 |
| 20260506143305 | 15 | 105 | 6.4 | 8.0 | 0.00 | 0.00 | 0.00 | 64 | 1032.6 |
| 20260506142804 | 15 | 102 | 6.4 | 8.0 | 0.00 | 0.00 | 0.00 | 64 | 1032.5 |
| 20260506142301 | 15 | 105 | 4.8 | 8.0 | 0.00 | 0.00 | 0.00 | 64 | 1032.6 |
| 20260506141759 | 15 | 124 | 6.4 | 8.0 | 0.00 | 0.00 | 0.00 | 64 | 1032.5 |
| 20260506141257 | 15 | 108 | 6.4 | 8.0 | 0.00 | 0.00 | 0.00 | 63 | 1032.6 |
| 20260506140755 | 15 | 107 | 8.0 | 9.7 | 0.00 | 0.00 | 0.00 | 64 | 1032.5 |
| 20260506140251 | 15 | 103 | 8.0 | 11.3 | 0.00 | 0.00 | 0.00 | 64 | 1032.7 |
| 20260506135749 | 15 | 109 | 8.0 | 8.0 | 0.00 | 0.00 | 0.00 | 64 | 1032.5 |
| 20260506135245 | 15 | 109 | 8.0 | 8.0 | 0.00 | 0.00 | 0.00 | 65 | 1032.4 |
| 20260506134742 | 15 | 121 | 6.4 | 8.0 | 0.00 | 0.00 | 0.00 | 65 | 1032.6 |
| 20260506134238 | 15 | 112 | 4.8 | 6.4 | 0.00 | 0.00 | 0.00 | 65 | 1032.5 |
| 20260506133735 | 15 | 112 | 6.4 | 8.0 | 0.00 | 0.00 | 0.00 | 65 | 1032.5 |
| 20260506133232 | 15 | 129 | 4.8 | 4.8 | 0.00 | 0.00 | 0.00 | 64 | 1032.6 |
| 20260506132729 | 15 | 124 | 4.8 | 11.3 | 0.00 | 0.00 | 0.00 | 63 | 1032.5 |
| 20260506132226 | 15 | 131 | 8.0 | 11.3 | 0.00 | 0.00 | 0.00 | 63 | 1032.4 |
| 20260506131724 | 15 | 125 | 12.9 | 16.1 | 0.00 | 0.00 | 0.00 | 64 | 1032.4 |
| 20260506131219 | 15 | 125 | 8.0 | 11.3 | 0.00 | 0.00 | 0.00 | 66 | 1032.5 |
| 20260506130717 | 15 | 130 | 8.0 | 11.3 | 0.00 | 0.00 | 0.00 | 66 | 1032.3 |
| 20260506130214 | 15 | 131 | 9.7 | 12.9 | 0.00 | 0.00 | 0.00 | 66 | 1032.4 |
| 20260506125712 | 15 | 135 | 6.4 | 9.7 | 0.00 | 0.00 | 0.00 | 66 | 1032.3 |
| 20260506125209 | 15 | 127 | 8.0 | 12.9 | 0.00 | 0.00 | 0.00 | 66 | 1032.0 |
| 20260506124707 | 15 | 126 | 6.4 | 9.7 | 0.00 | 0.00 | 0.00 | 66 | 1032.3 |
| 20260506124205 | 15 | 117 | 9.7 | 11.3 | 0.00 | 0.00 | 0.00 | 67 | 1032.2 |
| 20260506123702 | 15 | 120 | 9.7 | 9.7 | 0.00 | 0.00 | 0.00 | 67 | 1032.1 |
| 20260506123201 | 15 | 126 | 9.7 | 11.3 | 0.00 | 0.00 | 0.00 | 67 | 1032.1 |
| 20260506122657 | 15 | 130 | 6.4 | 11.3 | 0.00 | 0.00 | 0.00 | 66 | 1032.1 |
| 20260506122155 | 15 | 136 | 8.0 | 12.9 | 0.00 | 0.00 | 0.00 | 66 | 1031.9 |
| 20260506121652 | 15 | 140 | 8.0 | 9.7 | 0.00 | 0.00 | 0.00 | 67 | 1032.0 |
| 20260506121148 | 15 | 123 | 6.4 | 8.0 | 0.00 | 0.00 | 0.00 | 66 | 1031.8 |
| 20260506120647 | 16 | 123 | 4.8 | 9.7 | 0.00 | 0.00 | 0.00 | 66 | 1031.8 |
| 20260506120143 | 16 | 136 | 8.0 | 9.7 | 0.00 | 0.00 | 0.00 | 66 | 1031.8 |
| 20260506115642 | 16 | 120 | 4.8 | 8.0 | 0.00 | 0.00 | 0.00 | 65 | 1031.9 |
| 20260506115140 | 16 | 128 | 6.4 | 9.7 | 0.00 | 0.00 | 0.00 | 65 | 1031.8 |
| 20260506114637 | 16 | 123 | 4.8 | 9.7 | 0.00 | 0.00 | 0.00 | 65 | 1031.7 |
| 20260506114135 | 16 | 133 | 6.4 | 9.7 | 0.00 | 0.00 | 0.00 | 65 | 1031.7 |
| 20260506113633 | 16 | 128 | 8.0 | 9.7 | 0.00 | 0.00 | 0.00 | 65 | 1031.7 |
| 20260506113130 | 16 | 131 | 11.3 | 12.9 | 0.00 | 0.00 | 0.00 | 65 | 1031.7 |
| 20260506112626 | 16 | 140 | 8.0 | 9.7 | 0.00 | 0.00 | 0.00 | 65 | 1031.5 |
| 20260506112124 | 16 | 145 | 8.0 | 11.3 | 0.00 | 0.00 | 0.00 | 64 | 1031.5 |
| 20260506111621 | 16 | 136 | 4.8 | 9.7 | 0.00 | 0.00 | 0.00 | 64 | 1031.4 |
| 20260506111119 | 16 | 139 | 6.4 | 8.0 | 0.00 | 0.00 | 0.00 | 64 | 1031.4 |
| 20260506110616 | 16 | 139 | 4.8 | 6.4 | 0.00 | 0.00 | 0.00 | 63 | 1031.4 |
| 20260506110113 | 16 | 138 | 4.8 | 6.4 | 0.00 | 0.00 | 0.00 | 63 | 1031.3 |
| 20260506105609 | 17 | 125 | 4.8 | 6.4 | 0.00 | 0.00 | 0.00 | 62 | 1031.3 |
| 20260506105106 | 17 | 140 | 4.8 | 6.4 | 0.00 | 0.00 | 0.00 | 62 | 1031.3 |
| 20260506104605 | 17 | 140 | 6.4 | 8.0 | 0.00 | 0.00 | 0.00 | 61 | 1031.3 |
| 20260506104102 | 17 | 146 | 4.8 | 8.0 | 0.00 | 0.00 | 0.00 | 61 | 1031.4 |
| 20260506103559 | 17 | 143 | 6.4 | 6.4 | 0.00 | 0.00 | 0.00 | 61 | 1031.3 |
| 20260506103056 | 17 | 146 | 4.8 | 6.4 | 0.00 | 0.00 | 0.00 | 60 | 1031.2 |
| 20260506102554 | 17 | 139 | 3.2 | 4.8 | 0.00 | 0.00 | 0.00 | 59 | 1031.3 |
| 20260506102051 | 17 | 140 | 4.8 | 6.4 | 0.00 | 0.00 | 0.00 | 59 | 1031.3 |
| 20260506101548 | 18 | 121 | 3.2 | 4.8 | 0.00 | 0.00 | 0.00 | 58 | 1031.2 |
| 20260506101045 | 18 | 135 | 3.2 | 4.8 | 0.00 | 0.00 | 0.00 | 57 | 1031.2 |
| 20260506100543 | 18 | 124 | 4.8 | 6.4 | 0.00 | 0.00 | 0.00 | 57 | 1031.2 |
| 20260506100041 | 18 | 123 | 4.8 | 6.4 | 0.00 | 0.00 | 0.00 | 56 | 1031.0 |
| 20260506095540 | 18 | 103 | 6.4 | 8.0 | 0.00 | 0.00 | 0.00 | 55 | 1031.0 |
| 20260506095035 | 18 | 115 | 4.8 | 8.0 | 0.00 | 0.00 | 0.00 | 55 | 1030.9 |
| 20260506094533 | 19 | 116 | 6.4 | 9.7 | 0.00 | 0.00 | 0.00 | 55 | 1031.0 |
| 20260506094031 | 19 | 122 | 6.4 | 6.4 | 0.00 | 0.00 | 0.00 | 55 | 1030.8 |
| 20260506093529 | 19 | 126 | 4.8 | 6.4 | 0.00 | 0.00 | 0.00 | 54 | 1030.9 |
| 20260506093026 | 20 | 98 | 6.4 | 8.0 | 0.00 | 0.00 | 0.00 | 53 | 1030.9 |
| 20260506092524 | 20 | 110 | 6.4 | 9.7 | 0.00 | 0.00 | 0.00 | 52 | 1030.8 |
| 20260506092020 | 20 | 120 | 4.8 | 11.3 | 0.00 | 0.00 | 0.00 | 51 | 1030.8 |
| 20260506091519 | 20 | 118 | 6.4 | 11.3 | 0.00 | 0.00 | 0.00 | 51 | 1030.6 |
| 20260506091016 | 20 | 113 | 4.8 | 8.0 | 0.00 | 0.00 | 0.00 | 51 | 1030.7 |
| 20260506090514 | 21 | 126 | 11.3 | 12.9 | 0.00 | 0.00 | 0.00 | 50 | 1030.7 |
| 20260506090010 | 21 | 96 | 12.9 | 17.7 | 0.00 | 0.00 | 0.00 | 50 | 1030.8 |
| 20260506085507 | 21 | 107 | 6.4 | 12.9 | 0.00 | 0.00 | 0.00 | 49 | 1030.6 |
| 20260506085003 | 21 | 119 | 8.0 | 11.3 | 0.00 | 0.00 | 0.00 | 49 | 1030.6 |
| 20260506084500 | 21 | 132 | 9.7 | 17.7 | 0.00 | 0.00 | 0.00 | 49 | 1030.6 |
| 20260506083956 | 21 | 130 | 12.9 | 16.1 | 0.00 | 0.00 | 0.00 | 49 | 1030.6 |
| 20260506083453 | 21 | 100 | 14.5 | 17.7 | 0.00 | 0.00 | 0.00 | 48 | 1030.6 |
| 20260506082950 | 21 | 119 | 9.7 | 19.3 | 0.00 | 0.00 | 0.00 | 48 | 1030.5 |
| 20260506082448 | 21 | 101 | 14.5 | 17.7 | 0.00 | 0.00 | 0.00 | 47 | 1030.5 |
| 20260506081943 | 21 | 98 | 16.1 | 16.1 | 0.00 | 0.00 | 0.00 | 48 | 1030.5 |
| 20260506081442 | 21 | 105 | 8.0 | 16.1 | 0.00 | 0.00 | 0.00 | 48 | 1030.4 |
| 20260506080939 | 21 | 124 | 11.3 | 19.3 | 0.00 | 0.00 | 0.00 | 48 | 1030.4 |
| 20260506080436 | 21 | 94 | 9.7 | 20.9 | 0.00 | 0.00 | 0.00 | 47 | 1030.4 |
| 20260506073420 | 22 | 110 | 12.9 | 24.1 | 0.00 | 0.00 | 0.00 | 47 | 1030.2 |
| 20260506072917 | 22 | 114 | 8.0 | 20.9 | 0.00 | 0.00 | 0.00 | 47 | 1030.3 |
| 20260506072414 | 22 | 96 | 8.0 | 16.1 | 0.00 | 0.00 | 0.00 | 48 | 1030.4 |
| 20260506071912 | 22 | 104 | 11.3 | 12.9 | 0.00 | 0.00 | 0.00 | 47 | 1030.4 |
| 20260506071410 | 22 | 81 | 14.5 | 19.3 | 0.00 | 0.00 | 0.00 | 47 | 1030.3 |
| 20260506070906 | 22 | 84 | 16.1 | 20.9 | 0.00 | 0.00 | 0.00 | 47 | 1030.3 |
| 20260506070403 | 22 | 101 | 9.7 | 17.7 | 0.00 | 0.00 | 0.00 | 49 | 1030.3 |
| 20260506062340 | 22 | 115 | 9.7 | 20.9 | 0.00 | 0.00 | 0.00 | 48 | 1030.1 |
| 20260506061836 | 22 | 143 | 14.5 | 24.1 | 0.00 | 0.00 | 0.00 | 48 | 1030.2 |
| 20260506061333 | 22 | 146 | 8.0 | 17.7 | 0.00 | 0.00 | 0.00 | 46 | 1030.2 |
| 20260506060831 | 22 | 88 | 12.9 | 22.5 | 0.00 | 0.00 | 0.00 | 48 | 1030.3 |
| 20260506060329 | 22 | 104 | 14.5 | 19.3 | 0.00 | 0.00 | 0.00 | 48 | 1030.2 |
| 20260506051300 | 21 | 113 | 4.8 | 16.1 | 0.00 | 0.00 | 0.00 | 52 | 1030.2 |
| 20260506050758 | 21 | 86 | 11.3 | 22.5 | 0.00 | 0.00 | 0.00 | 51 | 1030.4 |
| 20260506050256 | 22 | 92 | 16.1 | 19.3 | 0.00 | 0.00 | 0.00 | 52 | 1030.4 |
| 20260506044746 | 21 | 86 | 11.3 | 24.1 | 0.00 | 0.00 | 0.00 | 53 | 1030.6 |
| 20260506044243 | 21 | 87 | 11.3 | 22.5 | 0.00 | 0.00 | 0.00 | 53 | 1030.6 |
| 20260506043741 | 21 | 117 | 20.9 | 24.1 | 0.00 | 0.00 | 0.00 | 54 | 1030.8 |
| 20260506043238 | 21 | 128 | 8.0 | 17.7 | 0.00 | 0.00 | 0.00 | 54 | 1030.9 |
| 20260506042737 | 21 | 61 | 9.7 | 17.7 | 0.00 | 0.00 | 0.00 | 54 | 1030.9 |
| 20260506042235 | 21 | 49 | 12.9 | 20.9 | 0.00 | 0.00 | 0.00 | 54 | 1031.0 |
| 20260506041733 | 21 | 59 | 11.3 | 17.7 | 0.00 | 0.00 | 0.00 | 54 | 1031.1 |
| 20260506041230 | 21 | 84 | 11.3 | 19.3 | 0.00 | 0.00 | 0.00 | 54 | 1031.2 |
| 20260506040727 | 21 | 32 | 14.5 | 19.3 | 0.00 | 0.00 | 0.00 | 54 | 1031.3 |
| 20260506040224 | 20 | 45 | 16.1 | 24.1 | 0.00 | 0.00 | 0.00 | 54 | 1031.4 |
| 20260506035721 | 20 | 25 | 14.5 | 20.9 | 0.00 | 0.00 | 0.00 | 55 | 1031.2 |
| 20260506035218 | 20 | 93 | 14.5 | 19.3 | 0.00 | 0.00 | 0.00 | 56 | 1031.3 |
| 20260506034714 | 20 | 127 | 9.7 | 16.1 | 0.00 | 0.00 | 0.00 | 56 | 1031.4 |
| 20260506034212 | 20 | 85 | 14.5 | 20.9 | 0.00 | 0.00 | 0.00 | 56 | 1031.4 |
| 20260506033709 | 20 | 75 | 12.9 | 20.9 | 0.00 | 0.00 | 0.00 | 57 | 1031.6 |
| 20260506033206 | 20 | 85 | 3.2 | 12.9 | 0.00 | 0.00 | 0.00 | 58 | 1031.5 |
| 20260506032703 | 20 | 72 | 14.5 | 16.1 | 0.00 | 0.00 | 0.00 | 58 | 1031.7 |
| 20260506032200 | 20 | 87 | 16.1 | 27.4 | 0.00 | 0.00 | 0.00 | 59 | 1031.7 |
| 20260506031657 | 20 | 69 | 12.9 | 24.1 | 0.00 | 0.00 | 0.00 | 58 | 1031.7 |
| 20260506031154 | 20 | 111 | 16.1 | 20.9 | 0.00 | 0.00 | 0.00 | 58 | 1031.7 |
| 20260506030652 | 19 | 46 | 6.4 | 24.1 | 0.00 | 0.00 | 0.00 | 60 | 1031.8 |
| 20260506030149 | 19 | 99 | 12.9 | 20.9 | 0.00 | 0.00 | 0.00 | 59 | 1031.8 |
| 20260506025646 | 19 | 91 | 12.9 | 20.9 | 0.00 | 0.00 | 0.00 | 60 | 1031.7 |
| 20260506025142 | 19 | 88 | 16.1 | 17.7 | 0.00 | 0.00 | 0.00 | 59 | 1031.7 |
| 20260506024640 | 18 | 74 | 12.9 | 20.9 | 0.00 | 0.00 | 0.00 | 60 | 1032.0 |
| 20260506024136 | 18 | 87 | 14.5 | 22.5 | 0.00 | 0.00 | 0.00 | 61 | 1031.9 |
| 20260506023632 | 18 | 87 | 12.9 | 20.9 | 0.00 | 0.00 | 0.00 | 60 | 1031.9 |
| 20260506023129 | 18 | 103 | 12.9 | 25.7 | 0.00 | 0.00 | 0.00 | 60 | 1032.0 |
| 20260506022627 | 18 | 111 | 20.9 | 22.5 | 0.00 | 0.00 | 0.00 | 61 | 1032.0 |
| 20260506022124 | 18 | 81 | 14.5 | 22.5 | 0.00 | 0.00 | 0.00 | 61 | 1032.0 |
| 20260506021621 | 18 | 72 | 12.9 | 24.1 | 0.00 | 0.00 | 0.00 | 62 | 1032.1 |
| 20260506021119 | 18 | 85 | 17.7 | 22.5 | 0.00 | 0.00 | 0.00 | 62 | 1032.0 |
| 20260506020616 | 17 | 77 | 16.1 | 29.0 | 0.00 | 0.00 | 0.00 | 63 | 1032.2 |
| 20260506020113 | 17 | 78 | 17.7 | 24.1 | 0.00 | 0.00 | 0.00 | 63 | 1032.0 |
| 20260506015611 | 17 | 84 | 20.9 | 32.2 | 0.00 | 0.00 | 0.00 | 63 | 1032.2 |
| 20260506015107 | 17 | 80 | 12.9 | 24.1 | 0.00 | 0.00 | 0.00 | 65 | 1032.1 |
| 20260506014605 | 17 | 87 | 22.5 | 29.0 | 0.00 | 0.00 | 0.00 | 65 | 1032.1 |
| 20260506014100 | 17 | 67 | 14.5 | 30.6 | 0.00 | 0.00 | 0.00 | 64 | 1032.1 |
| 20260506013559 | 17 | 66 | 17.7 | 25.7 | 0.00 | 0.00 | 0.00 | 64 | 1032.0 |
| 20260506013055 | 17 | 66 | 17.7 | 25.7 | 0.00 | 0.00 | 0.00 | 65 | 1032.0 |
| 20260506012551 | 16 | 64 | 17.7 | 29.0 | 0.00 | 0.00 | 0.00 | 66 | 1032.0 |
| 20260506012048 | 17 | 81 | 20.9 | 25.7 | 0.00 | 0.00 | 0.00 | 66 | 1031.9 |
| 20260506011546 | 17 | 83 | 14.5 | 22.5 | 0.00 | 0.00 | 0.00 | 67 | 1032.3 |
| 20260506011042 | 16 | 87 | 12.9 | 22.5 | 0.00 | 0.00 | 0.00 | 67 | 1032.0 |
| 20260506010542 | 16 | 88 | 12.9 | 20.9 | 0.00 | 0.00 | 0.00 | 68 | 1032.0 |
| 20260506010038 | 16 | 84 | 27.4 | 32.2 | 0.00 | 0.00 | 0.00 | 68 | 1032.0 |
| 20260506005535 | 16 | 103 | 11.3 | 17.7 | 0.00 | 0.00 | 0.00 | 70 | 1032.0 |
| 20260506005031 | 16 | 81 | 14.5 | 24.1 | 0.00 | 0.00 | 0.00 | 69 | 1031.7 |
| 20260506004528 | 16 | 97 | 17.7 | 20.9 | 0.00 | 0.00 | 0.00 | 70 | 1031.8 |
| 20260506004025 | 15 | 96 | 9.7 | 20.9 | 0.00 | 0.00 | 0.00 | 70 | 1031.8 |
| 20260506003521 | 15 | 126 | 8.0 | 16.1 | 0.00 | 0.00 | 0.00 | 70 | 1031.8 |
| 20260506003017 | 15 | 99 | 9.7 | 20.9 | 0.00 | 0.00 | 0.00 | 71 | 1031.7 |
| 20260506002514 | 15 | 96 | 12.9 | 17.7 | 0.00 | 0.00 | 0.00 | 71 | 1031.8 |
| 20260506002009 | 15 | 93 | 12.9 | 20.9 | 0.00 | 0.00 | 0.00 | 71 | 1031.6 |
| 20260506001506 | 15 | 107 | 11.3 | 17.7 | 0.00 | 0.00 | 0.00 | 71 | 1031.9 |
| 20260506001003 | 15 | 97 | 9.7 | 16.1 | 0.00 | 0.00 | 0.00 | 72 | 1031.7 |
| 20260506000500 | 15 | 99 | 12.9 | 17.7 | 0.00 | 0.00 | 0.00 | 72 | 1031.7 |
| 20260505235957 | 14 | 93 | 14.5 | 17.7 | 0.00 | 0.00 | 0.00 | 73 | 1031.4 |
| 20260505235456 | 14 | 76 | 14.5 | 22.5 | 0.00 | 0.00 | 0.00 | 73 | 1031.4 |
| 20260505234952 | 14 | 98 | 11.3 | 17.7 | 0.00 | 0.00 | 0.00 | 74 | 1031.3 |
| 20260505234450 | 13 | 73 | 12.9 | 20.9 | 0.00 | 0.00 | 0.00 | 74 | 1031.4 |
| 20260505233946 | 13 | 91 | 9.7 | 24.1 | 0.00 | 0.00 | 0.00 | 75 | 1031.2 |
| 20260505233444 | 13 | 85 | 12.9 | 20.9 | 0.00 | 0.00 | 0.00 | 75 | 1030.9 |
| 20260505232941 | 13 | 94 | 8.0 | 17.7 | 0.00 | 0.00 | 0.00 | 76 | 1031.1 |
| 20260505232439 | 13 | 89 | 12.9 | 22.5 | 0.00 | 0.00 | 0.00 | 76 | 1030.9 |
| 20260505231936 | 13 | 82 | 16.1 | 20.9 | 0.00 | 0.00 | 0.00 | 76 | 1031.0 |
| 20260505231433 | 13 | 95 | 12.9 | 20.9 | 0.00 | 0.00 | 0.00 | 77 | 1030.9 |
| 20260505230931 | 13 | 86 | 8.0 | 20.9 | 0.00 | 0.00 | 0.00 | 77 | 1030.7 |
| 20260505230429 | 12 | 113 | 16.1 | 20.9 | 0.00 | 0.00 | 0.00 | 77 | 1030.8 |
| 20260505225925 | 13 | 96 | 12.9 | 20.9 | 0.00 | 0.00 | 0.00 | 77 | 1030.7 |
| 20260505225422 | 13 | 98 | 14.5 | 22.5 | 0.00 | 0.00 | 0.00 | 77 | 1030.6 |
| 20260505224917 | 13 | 91 | 12.9 | 19.3 | 0.00 | 0.00 | 0.00 | 77 | 1030.5 |
| 20260505224415 | 13 | 88 | 11.3 | 24.1 | 0.00 | 0.00 | 0.00 | 77 | 1030.5 |
| 20260505223912 | 13 | 97 | 14.5 | 22.5 | 0.00 | 0.00 | 0.00 | 77 | 1030.5 |
| 20260505223409 | 12 | 104 | 8.0 | 24.1 | 0.00 | 0.00 | 0.00 | 78 | 1030.6 |
| 20260505222905 | 12 | 108 | 17.7 | 20.9 | 0.00 | 0.00 | 0.00 | 78 | 1030.5 |
| 20260505222401 | 12 | 100 | 16.1 | 24.1 | 0.00 | 0.00 | 0.00 | 78 | 1030.4 |
| 20260505221858 | 12 | 99 | 14.5 | 20.9 | 0.00 | 0.00 | 0.00 | 79 | 1030.5 |
| 20260505221355 | 12 | 112 | 16.1 | 17.7 | 0.00 | 0.00 | 0.00 | 79 | 1030.4 |
| 20260505220852 | 12 | 114 | 9.7 | 17.7 | 0.00 | 0.00 | 0.00 | 78 | 1030.2 |
| 20260505220349 | 12 | 124 | 11.3 | 20.9 | 0.00 | 0.00 | 0.00 | 78 | 1030.3 |
| 20260505215847 | 12 | 125 | 14.5 | 17.7 | 0.00 | 0.00 | 0.00 | 77 | 1030.2 |
| 20260505215345 | 13 | 117 | 11.3 | 16.1 | 0.00 | 0.00 | 0.00 | 77 | 1030.3 |
| 20260505214842 | 13 | 100 | 11.3 | 22.5 | 0.00 | 0.00 | 0.00 | 76 | 1030.2 |
| 20260505214340 | 13 | 105 | 12.9 | 19.3 | 0.00 | 0.00 | 0.00 | 77 | 1030.3 |
| 20260505213837 | 13 | 107 | 11.3 | 22.5 | 0.00 | 0.00 | 0.00 | 77 | 1030.2 |
| 20260505213335 | 13 | 101 | 16.1 | 22.5 | 0.00 | 0.00 | 0.00 | 77 | 1029.9 |
| 20260505212830 | 13 | 100 | 12.9 | 20.9 | 0.00 | 0.00 | 0.00 | 76 | 1030.0 |
| 20260505212328 | 13 | 124 | 16.1 | 24.1 | 0.00 | 0.00 | 0.00 | 77 | 1029.9 |
| 20260505211823 | 13 | 111 | 16.1 | 20.9 | 0.00 | 0.00 | 0.00 | 76 | 1029.9 |
| 20260505211322 | 13 | 91 | 16.1 | 20.9 | 0.00 | 0.00 | 0.00 | 77 | 1029.8 |
| 20260505210818 | 13 | 102 | 11.3 | 19.3 | 0.00 | 0.00 | 0.00 | 76 | 1030.0 |
| 20260505210315 | 13 | 89 | 11.3 | 17.7 | 0.00 | 0.00 | 0.00 | 76 | 1029.9 |
| 20260505205812 | 13 | 112 | 16.1 | 24.1 | 0.00 | 0.00 | 0.00 | 76 | 1029.8 |
| 20260505205310 | 13 | 103 | 14.5 | 22.5 | 0.00 | 0.00 | 0.00 | 76 | 1030.0 |
| 20260505204806 | 13 | 84 | 11.3 | 22.5 | 0.00 | 0.00 | 0.00 | 76 | 1029.9 |
| 20260505204304 | 13 | 91 | 12.9 | 24.1 | 0.00 | 0.00 | 0.00 | 76 | 1029.9 |
| 20260505203801 | 13 | 97 | 14.5 | 24.1 | 0.00 | 0.00 | 0.00 | 76 | 1029.8 |
| 20260505203258 | 13 | 92 | 11.3 | 22.5 | 0.00 | 0.00 | 0.00 | 76 | 1029.7 |
| 20260505202754 | 13 | 89 | 11.3 | 20.9 | 0.00 | 0.00 | 0.00 | 76 | 1029.8 |
| 20260505202250 | 13 | 87 | 12.9 | 19.3 | 0.00 | 0.00 | 0.00 | 76 | 1029.7 |
| 20260505201747 | 13 | 84 | 12.9 | 24.1 | 0.00 | 0.00 | 0.00 | 76 | 1029.4 |
| 20260505201244 | 13 | 88 | 14.5 | 22.5 | 0.00 | 0.00 | 0.00 | 75 | 1029.6 |
| 20260505200743 | 13 | 83 | 17.7 | 19.3 | 0.00 | 0.00 | 0.00 | 76 | 1029.7 |
| 20260505200240 | 13 | 89 | 11.3 | 20.9 | 0.00 | 0.00 | 0.00 | 76 | 1029.8 |
| 20260505195735 | 13 | 101 | 11.3 | 19.3 | 0.00 | 0.00 | 0.00 | 76 | 1029.6 |
| 20260505195233 | 12 | 114 | 12.9 | 16.1 | 0.00 | 0.00 | 0.00 | 76 | 1029.8 |
| 20260505194730 | 12 | 102 | 8.0 | 16.1 | 0.00 | 0.00 | 0.00 | 75 | 1029.7 |
| 20260505194226 | 12 | 100 | 11.3 | 12.9 | 0.00 | 0.00 | 0.00 | 75 | 1029.7 |
| 20260505193722 | 12 | 102 | 4.8 | 11.3 | 0.00 | 0.00 | 0.00 | 75 | 1029.7 |
| 20260505193219 | 12 | 98 | 6.4 | 12.9 | 0.00 | 0.00 | 0.00 | 75 | 1029.7 |
| 20260505192718 | 12 | 119 | 12.9 | 16.1 | 0.00 | 0.00 | 0.00 | 75 | 1029.7 |
| 20260505192215 | 12 | 93 | 9.7 | 16.1 | 0.00 | 0.00 | 0.00 | 75 | 1029.7 |
| 20260505191713 | 12 | 94 | 9.7 | 16.1 | 0.00 | 0.00 | 0.00 | 75 | 1029.5 |
| 20260505191211 | 12 | 110 | 11.3 | 12.9 | 0.00 | 0.00 | 0.00 | 74 | 1029.6 |
| 20260505190707 | 12 | 123 | 11.3 | 12.9 | 0.00 | 0.00 | 0.00 | 74 | 1029.8 |
| 20260505190207 | 12 | 109 | 8.0 | 16.1 | 0.00 | 0.00 | 0.00 | 74 | 1029.8 |
| 20260505185704 | 12 | 109 | 8.0 | 11.3 | 0.00 | 0.00 | 0.00 | 73 | 1029.8 |
| 20260505185200 | 12 | 123 | 12.9 | 16.1 | 0.00 | 0.00 | 0.00 | 73 | 1029.6 |
| 20260505184656 | 12 | 111 | 12.9 | 12.9 | 0.00 | 0.00 | 0.00 | 73 | 1029.7 |
| 20260505184154 | 12 | 125 | 11.3 | 14.5 | 0.00 | 0.00 | 0.00 | 73 | 1029.6 |
| 20260505183651 | 12 | 108 | 8.0 | 12.9 | 0.00 | 0.00 | 0.00 | 72 | 1029.5 |
| 20260505183148 | 13 | 106 | 14.5 | 17.7 | 0.00 | 0.00 | 0.00 | 72 | 1029.5 |
| 20260505182645 | 12 | 118 | 12.9 | 16.1 | 0.00 | 0.00 | 0.00 | 72 | 1029.8 |
| 20260505182142 | 12 | 117 | 11.3 | 14.5 | 0.00 | 0.00 | 0.00 | 72 | 1029.8 |
| 20260505181638 | 12 | 119 | 8.0 | 14.5 | 0.00 | 0.00 | 0.00 | 72 | 1029.7 |
| 20260505181136 | 12 | 132 | 11.3 | 14.5 | 0.00 | 0.00 | 0.00 | 72 | 1029.6 |
| 20260505180631 | 12 | 118 | 12.9 | 14.5 | 0.00 | 0.00 | 0.00 | 72 | 1029.7 |
| 20260505180129 | 13 | 115 | 9.7 | 14.5 | 0.00 | 0.00 | 0.00 | 71 | 1029.7 |
| 20260505175625 | 13 | 126 | 9.7 | 11.3 | 0.00 | 0.00 | 0.00 | 71 | 1029.6 |
| 20260505175121 | 13 | 116 | 11.3 | 16.1 | 0.00 | 0.00 | 0.00 | 71 | 1029.5 |
| 20260505174618 | 13 | 115 | 12.9 | 14.5 | 0.00 | 0.00 | 0.00 | 70 | 1029.6 |
| 20260505174114 | 13 | 104 | 8.0 | 14.5 | 0.00 | 0.00 | 0.00 | 70 | 1029.5 |
| 20260505173611 | 13 | 114 | 12.9 | 16.1 | 0.00 | 0.00 | 0.00 | 69 | 1029.5 |
| 20260505173108 | 13 | 117 | 12.9 | 17.7 | 0.00 | 0.00 | 0.00 | 69 | 1029.2 |
| 20260505172605 | 13 | 127 | 14.5 | 14.5 | 0.00 | 0.00 | 0.00 | 70 | 1029.3 |
| 20260505172102 | 13 | 129 | 14.5 | 16.1 | 0.00 | 0.00 | 0.00 | 70 | 1029.4 |
| 20260505171556 | 13 | 128 | 9.7 | 12.9 | 0.00 | 0.00 | 0.00 | 70 | 1029.4 |
| 20260505171054 | 13 | 116 | 9.7 | 12.9 | 0.00 | 0.00 | 0.00 | 70 | 1029.3 |
| 20260505170550 | 13 | 110 | 8.0 | 16.1 | 0.00 | 0.00 | 0.00 | 70 | 1029.3 |
| 20260505170047 | 13 | 113 | 9.7 | 16.1 | 0.00 | 0.00 | 0.00 | 69 | 1029.3 |